createdAt,value
2023-02-21T00:00:01.814Z,949.93
2023-02-21T00:00:11.812Z,949.89
2023-02-21T00:00:21.813Z,949.93
2023-02-21T00:00:31.823Z,949.93
2023-02-21T00:00:41.816Z,949.82
2023-02-21T00:00:51.840Z,949.89
2023-02-21T00:01:01.817Z,949.88
2023-02-21T00:01:12.092Z,949.93
2023-02-21T00:01:21.820Z,949.86
2023-02-21T00:01:31.823Z,949.87
2023-02-21T00:01:41.819Z,949.88
2023-02-21T00:01:51.861Z,949.91
2023-02-21T00:02:01.861Z,949.90
2023-02-21T00:02:11.880Z,949.93
2023-02-21T00:02:21.848Z,949.89
2023-02-21T00:02:31.823Z,949.83
2023-02-21T00:02:41.849Z,949.85
2023-02-21T00:02:51.828Z,949.93
2023-02-21T00:03:01.824Z,949.94
2023-02-21T00:03:11.831Z,949.97
2023-02-21T00:03:21.833Z,949.95
2023-02-21T00:03:31.830Z,949.90
2023-02-21T00:03:41.827Z,949.93
2023-02-21T00:03:51.839Z,949.93
2023-02-21T00:04:01.831Z,949.97
2023-02-21T00:04:11.834Z,949.99
2023-02-21T00:04:21.830Z,949.92
2023-02-21T00:04:31.843Z,949.95
2023-02-21T00:04:41.834Z,950.00
2023-02-21T00:04:51.866Z,949.96
2023-02-21T00:05:01.885Z,949.95
2023-02-21T00:05:11.881Z,949.95
2023-02-21T00:05:21.871Z,949.98
2023-02-21T00:05:31.840Z,949.96
2023-02-21T00:05:41.961Z,949.97
2023-02-21T00:05:51.983Z,949.99
2023-02-21T00:06:01.861Z,949.98
2023-02-21T00:06:11.868Z,949.96
2023-02-21T00:06:21.886Z,950.01
2023-02-21T00:06:31.842Z,950.03
2023-02-21T00:06:41.843Z,949.94
2023-02-21T00:06:51.844Z,949.97
2023-02-21T00:07:01.842Z,950.04
2023-02-21T00:07:11.845Z,950.01
2023-02-21T00:07:21.843Z,950.02
2023-02-21T00:07:31.865Z,949.88
2023-02-21T00:07:41.850Z,949.96
2023-02-21T00:07:51.863Z,949.99
2023-02-21T00:08:01.852Z,950.02
2023-02-21T00:08:11.856Z,950.00
2023-02-21T00:08:21.852Z,949.99
2023-02-21T00:08:31.860Z,950.02
2023-02-21T00:08:41.863Z,949.85
2023-02-21T00:08:51.863Z,949.88
2023-02-21T00:09:01.856Z,949.98
2023-02-21T00:09:11.857Z,949.97
2023-02-21T00:09:21.851Z,950.01
2023-02-21T00:09:31.872Z,950.02
2023-02-21T00:09:41.870Z,950.04
2023-02-21T00:09:51.869Z,950.05
2023-02-21T00:10:01.865Z,949.99
2023-02-21T00:10:11.897Z,950.03
2023-02-21T00:10:21.863Z,950.05
2023-02-21T00:10:31.873Z,950.03
2023-02-21T00:10:41.863Z,950.05
2023-02-21T00:10:51.914Z,950.04
2023-02-21T00:11:01.870Z,949.94
2023-02-21T00:11:12.158Z,949.93
2023-02-21T00:11:23.876Z,949.94
2023-02-21T00:11:31.868Z,949.97
2023-02-21T00:11:41.870Z,949.98
2023-02-21T00:11:51.882Z,949.99
2023-02-21T00:12:01.871Z,950.03
2023-02-21T00:12:11.872Z,949.94
2023-02-21T00:12:21.886Z,950.00
2023-02-21T00:12:31.868Z,949.98
2023-02-21T00:12:41.877Z,950.00
2023-02-21T00:12:51.880Z,950.03
2023-02-21T00:13:01.879Z,950.06
2023-02-21T00:13:11.874Z,950.09
2023-02-21T00:13:21.873Z,950.06
2023-02-21T00:13:31.883Z,949.99
2023-02-21T00:13:41.878Z,950.04
2023-02-21T00:13:51.873Z,950.08
2023-02-21T00:14:01.875Z,950.06
2023-02-21T00:14:11.885Z,950.05
2023-02-21T00:14:21.889Z,950.06
2023-02-21T00:14:31.880Z,949.99
2023-02-21T00:14:41.887Z,950.04
2023-02-21T00:14:51.878Z,950.06
2023-02-21T00:15:01.889Z,950.02
2023-02-21T00:15:11.881Z,950.03
2023-02-21T00:15:21.880Z,949.96
2023-02-21T00:15:31.900Z,950.05
2023-02-21T00:15:41.894Z,950.08
2023-02-21T00:15:51.897Z,950.08
2023-02-21T00:16:01.887Z,949.95
2023-02-21T00:16:11.937Z,950.02
2023-02-21T00:16:21.919Z,950.05
2023-02-21T00:16:31.922Z,949.98
2023-02-21T00:16:41.914Z,950.09
2023-02-21T00:16:51.925Z,950.01
2023-02-21T00:17:01.897Z,950.05
2023-02-21T00:17:11.907Z,950.00
2023-02-21T00:17:21.895Z,950.03
2023-02-21T00:17:31.908Z,950.15
2023-02-21T00:17:41.892Z,950.04
2023-02-21T00:17:51.892Z,950.11
2023-02-21T00:18:01.892Z,949.96
2023-02-21T00:18:11.913Z,950.00
2023-02-21T00:18:21.899Z,950.03
2023-02-21T00:18:31.898Z,950.00
2023-02-21T00:18:41.908Z,950.02
2023-02-21T00:18:51.899Z,950.04
2023-02-21T00:19:01.922Z,950.03
2023-02-21T00:19:11.910Z,950.02
2023-02-21T00:19:21.904Z,950.02
2023-02-21T00:19:31.905Z,950.06
2023-02-21T00:19:41.915Z,950.02
2023-02-21T00:19:51.904Z,950.01
2023-02-21T00:20:01.906Z,950.04
2023-02-21T00:20:11.906Z,950.07
2023-02-21T00:20:21.916Z,950.02
2023-02-21T00:20:31.907Z,950.00
2023-02-21T00:20:41.909Z,950.03
2023-02-21T00:20:51.910Z,950.04
2023-02-21T00:21:01.914Z,950.04
2023-02-21T00:21:12.153Z,950.06
2023-02-21T00:21:21.915Z,950.07
2023-02-21T00:21:31.930Z,950.07
2023-02-21T00:21:41.912Z,950.09
2023-02-21T00:21:51.913Z,950.01
2023-02-21T00:22:01.924Z,950.04
2023-02-21T00:22:11.915Z,950.06
2023-02-21T00:22:21.923Z,950.00
2023-02-21T00:22:31.931Z,950.05
2023-02-21T00:22:41.921Z,950.07
2023-02-21T00:22:51.915Z,950.01
2023-02-21T00:23:01.918Z,950.00
2023-02-21T00:23:11.961Z,950.02
2023-02-21T00:23:21.922Z,950.07
2023-02-21T00:23:31.938Z,949.97
2023-02-21T00:23:41.926Z,950.03
2023-02-21T00:23:51.923Z,950.00
2023-02-21T00:24:01.927Z,949.99
2023-02-21T00:24:11.923Z,950.06
2023-02-21T00:24:21.925Z,949.91
2023-02-21T00:24:31.937Z,949.93
2023-02-21T00:24:41.927Z,950.00
2023-02-21T00:24:51.930Z,950.04
2023-02-21T00:25:01.927Z,950.06
2023-02-21T00:25:11.941Z,950.03
2023-02-21T00:25:21.927Z,949.96
2023-02-21T00:25:31.931Z,949.99
2023-02-21T00:25:41.940Z,950.00
2023-02-21T00:25:51.933Z,950.07
2023-02-21T00:26:01.943Z,949.94
2023-02-21T00:26:11.936Z,949.96
2023-02-21T00:26:21.936Z,950.00
2023-02-21T00:26:31.939Z,950.01
2023-02-21T00:26:41.957Z,950.00
2023-02-21T00:26:51.936Z,950.04
2023-02-21T00:27:01.943Z,950.01
2023-02-21T00:27:11.939Z,949.94
2023-02-21T00:27:21.943Z,950.01
2023-02-21T00:27:31.941Z,950.06
2023-02-21T00:27:41.939Z,950.07
2023-02-21T00:27:51.943Z,950.03
2023-02-21T00:28:01.952Z,950.03
2023-02-21T00:28:11.985Z,950.02
2023-02-21T00:28:21.944Z,950.04
2023-02-21T00:28:31.944Z,950.06
2023-02-21T00:28:41.939Z,950.06
2023-02-21T00:28:51.946Z,950.08
2023-02-21T00:29:01.944Z,950.10
2023-02-21T00:29:11.940Z,949.98
2023-02-21T00:29:21.952Z,949.97
2023-02-21T00:29:31.953Z,949.87
2023-02-21T00:29:41.945Z,950.03
2023-02-21T00:29:51.942Z,949.98
2023-02-21T00:30:02.001Z,950.05
2023-02-21T00:30:11.998Z,950.02
2023-02-21T00:30:21.997Z,949.88
2023-02-21T00:30:32.039Z,949.92
2023-02-21T00:30:42.007Z,950.07
2023-02-21T00:30:52.040Z,950.07
2023-02-21T00:31:01.977Z,950.00
2023-02-21T00:31:12.196Z,950.09
2023-02-21T00:31:21.984Z,949.88
2023-02-21T00:31:32.012Z,949.94
2023-02-21T00:31:41.957Z,949.96
2023-02-21T00:31:51.964Z,949.95
2023-02-21T00:32:01.954Z,950.03
2023-02-21T00:32:12.059Z,949.96
2023-02-21T00:32:21.983Z,950.01
2023-02-21T00:32:32.014Z,949.98
2023-02-21T00:32:42.090Z,949.96
2023-02-21T00:32:52.120Z,949.97
2023-02-21T00:33:02.069Z,949.99
2023-02-21T00:33:12.084Z,950.02
2023-02-21T00:33:22.021Z,949.89
2023-02-21T00:33:31.995Z,949.99
2023-02-21T00:33:41.963Z,949.98
2023-02-21T00:33:51.962Z,950.01
2023-02-21T00:34:01.972Z,950.01
2023-02-21T00:34:11.961Z,950.04
2023-02-21T00:34:21.965Z,950.00
2023-02-21T00:34:31.966Z,949.98
2023-02-21T00:34:41.966Z,950.02
2023-02-21T00:34:51.987Z,950.00
2023-02-21T00:35:02.002Z,949.96
2023-02-21T00:35:11.968Z,950.00
2023-02-21T00:35:21.974Z,950.01
2023-02-21T00:35:31.984Z,949.99
2023-02-21T00:35:41.989Z,950.02
2023-02-21T00:35:51.971Z,949.94
2023-02-21T00:36:01.988Z,949.91
2023-02-21T00:36:11.993Z,949.98
2023-02-21T00:36:21.974Z,949.98
2023-02-21T00:36:31.975Z,949.93
2023-02-21T00:36:41.974Z,949.99
2023-02-21T00:36:51.984Z,950.03
2023-02-21T00:37:01.986Z,949.99
2023-02-21T00:37:11.977Z,949.98
2023-02-21T00:37:21.984Z,949.96
2023-02-21T00:37:31.977Z,949.98
2023-02-21T00:37:41.985Z,949.99
2023-02-21T00:37:51.988Z,949.92
2023-02-21T00:38:01.998Z,949.98
2023-02-21T00:38:11.992Z,950.00
2023-02-21T00:38:22.007Z,950.02
2023-02-21T00:38:32.004Z,950.06
2023-02-21T00:38:41.989Z,949.87
2023-02-21T00:38:51.985Z,949.99
2023-02-21T00:39:02.003Z,949.96
2023-02-21T00:39:11.994Z,950.01
2023-02-21T00:39:21.993Z,950.04
2023-02-21T00:39:32.006Z,949.99
2023-02-21T00:39:42.004Z,950.03
2023-02-21T00:39:51.993Z,949.99
2023-02-21T00:40:01.993Z,950.02
2023-02-21T00:40:12.001Z,950.04
2023-02-21T00:40:22.010Z,950.08
2023-02-21T00:40:31.993Z,950.04
2023-02-21T00:40:41.981Z,950.03
2023-02-21T00:40:52.009Z,950.02
2023-02-21T00:41:02.008Z,950.01
2023-02-21T00:41:12.324Z,950.01
2023-02-21T00:41:21.998Z,950.01
2023-02-21T00:41:31.998Z,950.02
2023-02-21T00:41:41.997Z,950.07
2023-02-21T00:41:52.007Z,950.01
2023-02-21T00:42:02.045Z,950.08
2023-02-21T00:42:12.008Z,949.90
2023-02-21T00:42:22.006Z,950.02
2023-02-21T00:42:32.021Z,950.06
2023-02-21T00:42:42.034Z,950.08
2023-02-21T00:42:52.003Z,949.95
2023-02-21T00:43:02.004Z,949.93
2023-02-21T00:43:12.011Z,950.04
2023-02-21T00:43:22.007Z,950.03
2023-02-21T00:43:32.029Z,950.03
2023-02-21T00:43:42.019Z,949.97
2023-02-21T00:43:52.017Z,950.05
2023-02-21T00:44:02.016Z,949.96
2023-02-21T00:44:11.996Z,950.04
2023-02-21T00:44:22.028Z,950.04
2023-02-21T00:44:32.007Z,950.08
2023-02-21T00:44:42.014Z,950.04
2023-02-21T00:44:52.023Z,950.04
2023-02-21T00:45:02.050Z,950.00
2023-02-21T00:45:12.016Z,950.06
2023-02-21T00:45:22.018Z,950.00
2023-02-21T00:45:32.025Z,950.01
2023-02-21T00:45:42.041Z,950.02
2023-02-21T00:45:52.035Z,950.04
2023-02-21T00:46:02.093Z,949.97
2023-02-21T00:46:12.079Z,949.99
2023-02-21T00:46:22.104Z,950.00
2023-02-21T00:46:32.029Z,949.99
2023-02-21T00:46:42.037Z,949.97
2023-02-21T00:46:52.030Z,949.95
2023-02-21T00:47:02.041Z,949.96
2023-02-21T00:47:12.056Z,949.95
2023-02-21T00:47:22.043Z,949.96
2023-02-21T00:47:32.037Z,949.99
2023-02-21T00:47:42.035Z,950.00
2023-02-21T00:47:52.036Z,949.99
2023-02-21T00:48:02.032Z,949.99
2023-02-21T00:48:12.043Z,950.00
2023-02-21T00:48:22.034Z,950.03
2023-02-21T00:48:32.032Z,950.03
2023-02-21T00:48:42.043Z,949.93
2023-02-21T00:48:52.039Z,949.80
2023-02-21T00:49:02.037Z,949.99
2023-02-21T00:49:12.039Z,950.04
2023-02-21T00:49:22.043Z,950.02
2023-02-21T00:49:32.033Z,950.04
2023-02-21T00:49:42.048Z,949.97
2023-02-21T00:49:52.024Z,949.96
2023-02-21T00:50:02.050Z,949.96
2023-02-21T00:50:12.049Z,949.98
2023-02-21T00:50:22.039Z,949.99
2023-02-21T00:50:32.041Z,950.02
2023-02-21T00:50:42.039Z,949.98
2023-02-21T00:50:52.045Z,949.90
2023-02-21T00:51:02.761Z,949.94
2023-02-21T00:51:12.394Z,950.02
2023-02-21T00:51:22.048Z,950.01
2023-02-21T00:51:32.043Z,949.94
2023-02-21T00:51:42.048Z,950.02
2023-02-21T00:51:52.066Z,949.91
2023-02-21T00:52:02.052Z,949.98
2023-02-21T00:52:12.047Z,949.95
2023-02-21T00:52:22.053Z,949.97
2023-02-21T00:52:32.048Z,949.97
2023-02-21T00:52:42.055Z,949.90
2023-02-21T00:52:52.056Z,949.97
2023-02-21T00:53:02.056Z,949.97
2023-02-21T00:53:12.054Z,950.04
2023-02-21T00:53:22.058Z,950.05
2023-02-21T00:53:32.066Z,950.02
2023-02-21T00:53:42.059Z,950.01
2023-02-21T00:53:52.075Z,950.01
2023-02-21T00:54:02.056Z,950.01
2023-02-21T00:54:12.058Z,950.01
2023-02-21T00:54:22.070Z,950.02
2023-02-21T00:54:32.080Z,950.01
2023-02-21T00:54:42.063Z,950.00
2023-02-21T00:54:52.079Z,949.96
2023-02-21T00:55:02.062Z,949.99
2023-02-21T00:55:12.069Z,949.94
2023-02-21T00:55:22.071Z,949.95
2023-02-21T00:55:32.069Z,950.02
2023-02-21T00:55:42.073Z,949.97
2023-02-21T00:55:52.068Z,950.01
2023-02-21T00:56:02.080Z,949.91
2023-02-21T00:56:12.074Z,949.85
2023-02-21T00:56:22.116Z,949.96
2023-02-21T00:56:32.094Z,949.98
2023-02-21T00:56:42.087Z,949.88
2023-02-21T00:56:52.071Z,949.89
2023-02-21T00:57:02.072Z,949.93
2023-02-21T00:57:12.080Z,949.97
2023-02-21T00:57:22.073Z,949.98
2023-02-21T00:57:32.073Z,949.99
2023-02-21T00:57:42.089Z,949.95
2023-02-21T00:57:52.080Z,949.94
2023-02-21T00:58:02.086Z,949.96
2023-02-21T00:58:12.076Z,949.94
2023-02-21T00:58:22.081Z,949.93
2023-02-21T00:58:32.096Z,949.94
2023-02-21T00:58:42.092Z,949.93
2023-02-21T00:58:52.080Z,949.92
2023-02-21T00:59:02.088Z,949.90
2023-02-21T00:59:12.084Z,949.94
2023-02-21T00:59:22.096Z,949.97
2023-02-21T00:59:32.082Z,949.85
2023-02-21T00:59:42.082Z,949.85
2023-02-21T00:59:52.091Z,949.85
2023-02-21T01:00:02.121Z,949.92
2023-02-21T01:00:12.101Z,949.83
2023-02-21T01:00:22.089Z,949.90
2023-02-21T01:00:32.090Z,949.89
2023-02-21T01:00:42.089Z,949.91
2023-02-21T01:00:52.087Z,949.87
2023-02-21T01:01:02.185Z,949.92
2023-02-21T01:01:12.306Z,949.92
2023-02-21T01:01:22.158Z,949.91
2023-02-21T01:01:32.155Z,949.91
2023-02-21T01:01:42.136Z,949.89
2023-02-21T01:01:52.096Z,949.90
2023-02-21T01:02:02.123Z,949.92
2023-02-21T01:02:12.097Z,949.95
2023-02-21T01:02:22.098Z,949.86
2023-02-21T01:02:32.098Z,949.88
2023-02-21T01:02:42.098Z,949.84
2023-02-21T01:02:52.097Z,949.91
2023-02-21T01:03:02.114Z,949.90
2023-02-21T01:03:12.109Z,949.91
2023-02-21T01:03:22.101Z,949.90
2023-02-21T01:03:32.119Z,949.92
2023-02-21T01:03:42.105Z,949.88
2023-02-21T01:03:52.101Z,949.89
2023-02-21T01:04:02.167Z,949.87
2023-02-21T01:04:12.152Z,949.84
2023-02-21T01:04:22.149Z,949.88
2023-02-21T01:04:32.192Z,949.82
2023-02-21T01:04:42.113Z,949.72
2023-02-21T01:04:52.120Z,949.78
2023-02-21T01:05:02.129Z,949.84
2023-02-21T01:05:12.123Z,949.86
2023-02-21T01:05:22.113Z,949.84
2023-02-21T01:05:32.124Z,949.87
2023-02-21T01:05:42.136Z,949.83
2023-02-21T01:05:52.118Z,949.82
2023-02-21T01:06:02.144Z,949.83
2023-02-21T01:06:12.141Z,949.86
2023-02-21T01:06:22.126Z,949.87
2023-02-21T01:06:32.123Z,949.88
2023-02-21T01:06:42.126Z,949.91
2023-02-21T01:06:52.129Z,949.92
2023-02-21T01:07:02.125Z,949.94
2023-02-21T01:07:12.129Z,949.89
2023-02-21T01:07:22.127Z,949.96
2023-02-21T01:07:32.126Z,949.77
2023-02-21T01:07:42.128Z,949.87
2023-02-21T01:07:52.132Z,949.79
2023-02-21T01:08:02.131Z,949.95
2023-02-21T01:08:12.148Z,949.91
2023-02-21T01:08:22.136Z,949.92
2023-02-21T01:08:32.132Z,949.96
2023-02-21T01:08:42.140Z,949.90
2023-02-21T01:08:52.125Z,949.92
2023-02-21T01:09:02.184Z,949.97
2023-02-21T01:09:12.137Z,949.94
2023-02-21T01:09:22.136Z,949.97
2023-02-21T01:09:32.134Z,949.97
2023-02-21T01:09:42.152Z,949.95
2023-02-21T01:09:52.142Z,949.93
2023-02-21T01:10:02.153Z,949.91
2023-02-21T01:10:12.144Z,949.95
2023-02-21T01:10:22.145Z,949.98
2023-02-21T01:10:32.145Z,950.00
2023-02-21T01:10:42.155Z,949.98
2023-02-21T01:10:52.146Z,949.94
2023-02-21T01:11:02.175Z,949.94
2023-02-21T01:11:12.461Z,949.94
2023-02-21T01:11:22.152Z,949.96
2023-02-21T01:11:32.161Z,950.04
2023-02-21T01:11:42.148Z,949.94
2023-02-21T01:11:52.165Z,949.90
2023-02-21T01:12:02.169Z,949.93
2023-02-21T01:12:12.167Z,949.93
2023-02-21T01:12:22.154Z,949.98
2023-02-21T01:12:32.170Z,949.99
2023-02-21T01:12:42.158Z,949.92
2023-02-21T01:12:52.155Z,949.97
2023-02-21T01:13:02.180Z,949.94
2023-02-21T01:13:12.162Z,949.98
2023-02-21T01:13:22.167Z,949.98
2023-02-21T01:13:32.156Z,949.96
2023-02-21T01:13:42.162Z,949.97
2023-02-21T01:13:52.161Z,949.95
2023-02-21T01:14:02.169Z,949.96
2023-02-21T01:14:12.163Z,950.01
2023-02-21T01:14:22.186Z,949.99
2023-02-21T01:14:32.160Z,950.00
2023-02-21T01:14:42.183Z,950.01
2023-02-21T01:14:52.165Z,950.03
2023-02-21T01:15:02.171Z,950.02
2023-02-21T01:15:12.194Z,950.05
2023-02-21T01:15:22.169Z,950.03
2023-02-21T01:15:32.199Z,950.02
2023-02-21T01:15:42.210Z,950.04
2023-02-21T01:15:52.221Z,950.02
2023-02-21T01:16:02.207Z,950.02
2023-02-21T01:16:12.252Z,950.06
2023-02-21T01:16:22.172Z,950.03
2023-02-21T01:16:32.177Z,950.01
2023-02-21T01:16:42.177Z,950.04
2023-02-21T01:16:53.058Z,950.02
2023-02-21T01:17:12.492Z,949.98
2023-02-21T01:17:13.833Z,950.01
2023-02-21T01:17:22.185Z,950.01
2023-02-21T01:17:32.177Z,949.97
2023-02-21T01:17:42.177Z,949.94
2023-02-21T01:17:52.194Z,950.04
2023-02-21T01:18:02.185Z,950.03
2023-02-21T01:18:12.187Z,950.02
2023-02-21T01:18:22.186Z,950.04
2023-02-21T01:18:32.182Z,950.03
2023-02-21T01:18:42.181Z,950.03
2023-02-21T01:18:52.184Z,950.05
2023-02-21T01:19:02.205Z,950.03
2023-02-21T01:19:12.214Z,950.03
2023-02-21T01:19:22.195Z,950.05
2023-02-21T01:19:32.186Z,950.03
2023-02-21T01:19:42.191Z,950.05
2023-02-21T01:19:52.194Z,950.05
2023-02-21T01:20:02.208Z,950.06
2023-02-21T01:20:12.190Z,950.07
2023-02-21T01:20:22.189Z,950.07
2023-02-21T01:20:32.188Z,950.06
2023-02-21T01:20:42.192Z,950.02
2023-02-21T01:20:52.196Z,950.02
2023-02-21T01:21:02.208Z,950.07
2023-02-21T01:21:12.360Z,950.05
2023-02-21T01:21:22.194Z,950.07
2023-02-21T01:21:32.206Z,950.07
2023-02-21T01:21:42.198Z,950.07
2023-02-21T01:21:52.202Z,950.08
2023-02-21T01:22:02.203Z,950.08
2023-02-21T01:22:12.194Z,950.06
2023-02-21T01:22:22.225Z,950.04
2023-02-21T01:22:32.198Z,950.06
2023-02-21T01:22:42.207Z,950.08
2023-02-21T01:22:52.198Z,950.07
2023-02-21T01:23:02.201Z,950.04
2023-02-21T01:23:12.209Z,950.07
2023-02-21T01:23:22.211Z,950.12
2023-02-21T01:23:32.217Z,950.06
2023-02-21T01:23:42.203Z,950.00
2023-02-21T01:23:52.200Z,949.99
2023-02-21T01:24:02.213Z,950.05
2023-02-21T01:24:12.212Z,950.08
2023-02-21T01:24:22.212Z,950.03
2023-02-21T01:24:32.216Z,950.03
2023-02-21T01:24:42.215Z,950.05
2023-02-21T01:24:52.214Z,950.03
2023-02-21T01:25:02.214Z,950.04
2023-02-21T01:25:12.221Z,950.04
2023-02-21T01:25:22.211Z,950.02
2023-02-21T01:25:32.215Z,950.05
2023-02-21T01:25:42.215Z,950.03
2023-02-21T01:25:52.224Z,950.06
2023-02-21T01:26:02.237Z,949.99
2023-02-21T01:26:12.225Z,950.03
2023-02-21T01:26:22.226Z,950.04
2023-02-21T01:26:32.217Z,950.03
2023-02-21T01:26:42.277Z,950.01
2023-02-21T01:26:52.218Z,949.95
2023-02-21T01:27:02.223Z,949.93
2023-02-21T01:27:12.225Z,949.93
2023-02-21T01:27:22.220Z,949.95
2023-02-21T01:27:32.234Z,949.99
2023-02-21T01:27:42.223Z,950.03
2023-02-21T01:27:52.223Z,950.05
2023-02-21T01:28:02.225Z,950.02
2023-02-21T01:28:12.230Z,950.02
2023-02-21T01:28:22.228Z,949.94
2023-02-21T01:28:32.238Z,950.03
2023-02-21T01:28:42.232Z,950.01
2023-02-21T01:28:52.228Z,949.97
2023-02-21T01:29:02.230Z,949.98
2023-02-21T01:29:12.230Z,950.00
2023-02-21T01:29:22.235Z,949.98
2023-02-21T01:29:32.239Z,950.00
2023-02-21T01:29:42.289Z,950.02
2023-02-21T01:29:52.243Z,950.01
2023-02-21T01:30:02.245Z,949.96
2023-02-21T01:30:12.284Z,949.98
2023-02-21T01:30:22.272Z,950.01
2023-02-21T01:30:32.281Z,949.96
2023-02-21T01:30:42.370Z,950.00
2023-02-21T01:30:52.276Z,950.03
2023-02-21T01:31:02.316Z,949.99
2023-02-21T01:31:12.585Z,949.96
2023-02-21T01:31:22.274Z,949.93
2023-02-21T01:31:32.364Z,950.03
2023-02-21T01:31:42.242Z,950.00
2023-02-21T01:31:52.243Z,950.01
2023-02-21T01:32:02.312Z,949.99
2023-02-21T01:32:12.315Z,949.99
2023-02-21T01:32:22.313Z,950.00
2023-02-21T01:32:32.289Z,949.93
2023-02-21T01:32:42.252Z,950.01
2023-02-21T01:32:52.247Z,950.01
2023-02-21T01:33:02.268Z,949.98
2023-02-21T01:33:12.250Z,949.99
2023-02-21T01:33:22.249Z,949.99
2023-02-21T01:33:32.249Z,949.98
2023-02-21T01:33:42.251Z,950.02
2023-02-21T01:33:52.249Z,950.01
2023-02-21T01:34:02.269Z,950.01
2023-02-21T01:34:12.251Z,950.02
2023-02-21T01:34:22.255Z,950.01
2023-02-21T01:34:32.961Z,950.02
2023-02-21T01:34:42.257Z,950.02
2023-02-21T01:34:52.256Z,950.02
2023-02-21T01:35:02.285Z,950.06
2023-02-21T01:35:12.260Z,950.01
2023-02-21T01:35:22.258Z,950.03
2023-02-21T01:35:32.261Z,949.99
2023-02-21T01:35:42.262Z,949.98
2023-02-21T01:35:52.278Z,950.04
2023-02-21T01:36:02.260Z,950.05
2023-02-21T01:36:12.271Z,950.00
2023-02-21T01:36:22.265Z,949.99
2023-02-21T01:36:32.269Z,950.06
2023-02-21T01:36:42.287Z,950.02
2023-02-21T01:36:52.278Z,949.98
2023-02-21T01:37:02.286Z,950.04
2023-02-21T01:37:12.272Z,949.99
2023-02-21T01:37:22.270Z,949.97
2023-02-21T01:37:32.274Z,949.97
2023-02-21T01:37:42.273Z,950.01
2023-02-21T01:37:52.287Z,950.00
2023-02-21T01:38:02.313Z,950.07
2023-02-21T01:38:12.272Z,949.98
2023-02-21T01:38:22.292Z,949.90
2023-02-21T01:38:32.275Z,949.93
2023-02-21T01:38:42.279Z,949.99
2023-02-21T01:38:52.276Z,949.93
2023-02-21T01:39:02.281Z,949.92
2023-02-21T01:39:12.276Z,949.95
2023-02-21T01:39:22.275Z,950.00
2023-02-21T01:39:32.273Z,950.01
2023-02-21T01:39:42.293Z,949.97
2023-02-21T01:39:52.300Z,950.03
2023-02-21T01:40:02.278Z,949.87
2023-02-21T01:40:12.277Z,949.91
2023-02-21T01:40:22.297Z,949.88
2023-02-21T01:40:32.287Z,949.94
2023-02-21T01:40:42.289Z,949.89
2023-02-21T01:40:52.289Z,949.98
2023-02-21T01:41:02.288Z,950.00
2023-02-21T01:41:12.418Z,949.94
2023-02-21T01:41:22.288Z,949.96
2023-02-21T01:41:32.285Z,949.94
2023-02-21T01:41:42.289Z,949.96
2023-02-21T01:41:52.289Z,949.97
2023-02-21T01:42:02.300Z,949.97
2023-02-21T01:42:12.304Z,949.94
2023-02-21T01:42:22.295Z,949.93
2023-02-21T01:42:32.297Z,949.92
2023-02-21T01:42:42.302Z,949.94
2023-02-21T01:42:52.290Z,949.99
2023-02-21T01:43:02.288Z,950.00
2023-02-21T01:43:12.294Z,949.95
2023-02-21T01:43:22.290Z,949.97
2023-02-21T01:43:32.310Z,949.95
2023-02-21T01:43:42.294Z,949.96
2023-02-21T01:43:52.298Z,949.96
2023-02-21T01:44:02.304Z,949.83
2023-02-21T01:44:12.296Z,949.86
2023-02-21T01:44:22.296Z,949.93
2023-02-21T01:44:32.315Z,949.93
2023-02-21T01:44:42.304Z,950.03
2023-02-21T01:44:52.303Z,949.84
2023-02-21T01:45:02.301Z,949.89
2023-02-21T01:45:12.295Z,949.91
2023-02-21T01:45:22.298Z,949.87
2023-02-21T01:45:32.301Z,949.88
2023-02-21T01:45:42.332Z,949.82
2023-02-21T01:45:52.322Z,949.89
2023-02-21T01:46:02.349Z,949.94
2023-02-21T01:46:12.358Z,949.93
2023-02-21T01:46:22.363Z,949.90
2023-02-21T01:46:32.368Z,949.70
2023-02-21T01:46:42.322Z,949.82
2023-02-21T01:46:52.313Z,949.87
2023-02-21T01:47:02.328Z,949.84
2023-02-21T01:47:12.314Z,949.85
2023-02-21T01:47:22.309Z,949.83
2023-02-21T01:47:32.304Z,949.85
2023-02-21T01:47:42.307Z,949.86
2023-02-21T01:47:52.336Z,949.86
2023-02-21T01:48:02.314Z,949.82
2023-02-21T01:48:12.312Z,949.82
2023-02-21T01:48:22.310Z,949.84
2023-02-21T01:48:32.317Z,949.78
2023-02-21T01:48:42.307Z,949.83
2023-02-21T01:48:53.786Z,949.82
2023-02-21T01:49:02.365Z,949.80
2023-02-21T01:49:12.313Z,949.80
2023-02-21T01:49:22.323Z,949.79
2023-02-21T01:49:32.324Z,949.78
2023-02-21T01:49:42.336Z,949.84
2023-02-21T01:49:52.332Z,949.83
2023-02-21T01:50:02.316Z,949.79
2023-02-21T01:50:12.326Z,949.77
2023-02-21T01:50:22.315Z,949.79
2023-02-21T01:50:32.320Z,949.79
2023-02-21T01:50:42.320Z,949.72
2023-02-21T01:50:52.320Z,949.74
2023-02-21T01:51:02.333Z,949.79
2023-02-21T01:51:12.872Z,949.80
2023-02-21T01:51:22.320Z,949.84
2023-02-21T01:51:32.322Z,949.86
2023-02-21T01:51:42.324Z,949.83
2023-02-21T01:51:52.327Z,949.83
2023-02-21T01:52:02.326Z,949.81
2023-02-21T01:52:12.348Z,949.88
2023-02-21T01:52:22.338Z,949.89
2023-02-21T01:52:32.328Z,949.85
2023-02-21T01:52:42.351Z,949.81
2023-02-21T01:52:52.326Z,949.82
2023-02-21T01:53:02.328Z,949.67
2023-02-21T01:53:12.330Z,949.86
2023-02-21T01:53:22.340Z,949.85
2023-02-21T01:53:32.336Z,949.91
2023-02-21T01:53:42.338Z,949.71
2023-02-21T01:53:52.330Z,949.86
2023-02-21T01:54:02.333Z,949.85
2023-02-21T01:54:12.337Z,949.76
2023-02-21T01:54:22.343Z,949.78
2023-02-21T01:54:32.342Z,949.80
2023-02-21T01:54:42.345Z,949.77
2023-02-21T01:54:52.345Z,949.83
2023-02-21T01:55:02.359Z,949.88
2023-02-21T01:55:12.345Z,949.87
2023-02-21T01:55:22.343Z,949.91
2023-02-21T01:55:32.347Z,949.89
2023-02-21T01:55:42.342Z,949.78
2023-02-21T01:55:52.350Z,949.90
2023-02-21T01:56:02.368Z,949.89
2023-02-21T01:56:12.363Z,949.92
2023-02-21T01:56:22.344Z,949.91
2023-02-21T01:56:32.352Z,949.86
2023-02-21T01:56:42.362Z,949.85
2023-02-21T01:56:52.381Z,949.92
2023-02-21T01:57:02.357Z,949.95
2023-02-21T01:57:12.352Z,949.93
2023-02-21T01:57:22.351Z,949.84
2023-02-21T01:57:32.363Z,949.89
2023-02-21T01:57:42.347Z,949.93
2023-02-21T01:57:52.352Z,949.83
2023-02-21T01:58:04.544Z,949.86
2023-02-21T01:58:12.353Z,949.86
2023-02-21T01:58:22.338Z,949.91
2023-02-21T01:58:32.357Z,949.88
2023-02-21T01:58:42.355Z,949.90
2023-02-21T01:58:52.355Z,949.78
2023-02-21T01:59:02.359Z,949.89
2023-02-21T01:59:12.354Z,949.83
2023-02-21T01:59:22.382Z,949.75
2023-02-21T01:59:32.357Z,949.87
2023-02-21T01:59:42.366Z,949.92
2023-02-21T01:59:52.361Z,949.91
2023-02-21T02:00:02.377Z,949.76
2023-02-21T02:00:12.368Z,949.85
2023-02-21T02:00:22.366Z,949.83
2023-02-21T02:00:32.366Z,949.73
2023-02-21T02:00:42.363Z,949.81
2023-02-21T02:00:52.382Z,949.72
2023-02-21T02:01:02.390Z,949.85
2023-02-21T02:01:12.689Z,949.82
2023-02-21T02:01:22.389Z,949.93
2023-02-21T02:01:32.387Z,949.78
2023-02-21T02:01:42.431Z,949.85
2023-02-21T02:01:52.427Z,949.93
2023-02-21T02:02:02.375Z,949.89
2023-02-21T02:02:12.372Z,949.87
2023-02-21T02:02:22.380Z,949.83
2023-02-21T02:02:32.376Z,949.88
2023-02-21T02:02:42.387Z,949.93
2023-02-21T02:02:52.377Z,949.90
2023-02-21T02:03:02.378Z,949.87
2023-02-21T02:03:12.388Z,949.86
2023-02-21T02:03:22.378Z,949.85
2023-02-21T02:03:32.386Z,949.83
2023-02-21T02:03:42.406Z,949.85
2023-02-21T02:03:52.382Z,949.84
2023-02-21T02:04:02.383Z,949.85
2023-02-21T02:04:12.397Z,949.86
2023-02-21T02:04:22.416Z,949.87
2023-02-21T02:04:32.405Z,949.89
2023-02-21T02:04:42.393Z,949.88